Time;durP1;ratioP1;P1;durP2;ratioP2;P2;SDS_P1;SDS_P2;PMS_P1;PMS_P2;Temp;Humidity;BMP_temperature;BMP_pressure;BME280_temperature;BME280_humidity;BME280_pressure;Samples;Min_cycle;Max_cycle;Signal;HPM_P1;HPM_P2
2023/11/25 00:00:39;;;;;;;;;;;;;;;24.28;19.38;96047.69;5082721;28;19934;-87
2023/11/25 00:03:05;;;;;;;;;;;;;;;24.39;19.24;96043.03;5078619;28;19920;-87
2023/11/25 00:05:31;;;;;;;;;;;;;;;24.38;18.85;96040.72;5083073;28;20344;-87
2023/11/25 00:07:57;;;;;;;;;;;;;;;23.93;19.53;96045.53;5092338;28;19934;-87
2023/11/25 00:10:23;;;;;;;;;;;;;;;24.01;19.66;96034.72;5082813;28;20437;-87
2023/11/25 00:12:49;;;;;;;;;;;;;;;24.18;19.40;96049.06;5084420;28;19928;-87
2023/11/25 00:15:15;;;;;;;;;;;;;;;24.38;19.25;96043.53;5096585;28;19924;-88
2023/11/25 00:17:42;;;;;;;;;;;;;;;24.66;18.69;96041.94;5092652;28;19997;-88
2023/11/25 00:20:08;;;;;;;;;;;;;;;24.90;18.59;96051.00;5081004;28;19925;-88
2023/11/25 00:22:35;;;;;;;;;;;;;;;25.02;18.66;96047.09;5082860;28;19933;-88
2023/11/25 00:25:01;;;;;;;;;;;;;;;24.89;18.61;96041.03;5082813;28;19920;-87
2023/11/25 00:27:29;;;;;;;;;;;;;;;24.61;18.99;96040.59;5087015;28;19921;-87
2023/11/25 00:29:55;;;;;;;;;;;;;;;24.36;19.37;96044.03;5090256;28;20439;-88
2023/11/25 00:32:21;;;;;;;;;;;;;;;24.17;19.20;96034.25;5087476;28;19927;-88
2023/11/25 00:34:48;;;;;;;;;;;;;;;24.07;19.35;96029.22;5091102;28;20015;-88
2023/11/25 00:37:14;;;;;;;;;;;;;;;24.31;19.08;96015.88;5087196;28;19924;-87
2023/11/25 00:39:40;;;;;;;;;;;;;;;24.12;19.24;96020.13;5094997;28;19924;-87
2023/11/25 00:42:06;;;;;;;;;;;;;;;23.76;19.16;96015.63;5082189;28;19950;-88
2023/11/25 00:44:32;;;;;;;;;;;;;;;23.75;19.12;96017.69;5077570;28;19920;-87
2023/11/25 00:47:00;;;;;;;;;;;;;;;23.97;18.93;96014.47;5076110;28;19916;-87
2023/11/25 00:49:27;;;;;;;;;;;;;;;23.92;18.96;96020.78;5090138;28;20383;-87
2023/11/25 00:51:53;;;;;;;;;;;;;;;23.73;18.94;96017.38;5078169;28;19924;-87
2023/11/25 00:54:19;;;;;;;;;;;;;;;23.55;19.30;96011.19;5084692;28;19931;-88
2023/11/25 00:56:45;;;;;;;;;;;;;;;23.48;19.34;96005.94;5085688;28;19923;-87
2023/11/25 00:59:11;;;;;;;;;;;;;;;23.79;18.90;96009.06;5086477;28;19920;-87
2023/11/25 01:01:38;;;;;;;;;;;;;;;24.10;18.45;96008.63;5094501;28;20276;-88
2023/11/25 01:04:04;;;;;;;;;;;;;;;24.36;18.51;96007.56;5093160;28;19920;-87
2023/11/25 01:06:30;;;;;;;;;;;;;;;24.44;18.37;95999.50;5088239;28;19928;-88
2023/11/25 01:08:56;;;;;;;;;;;;;;;24.36;18.04;96013.16;5095375;28;20015;-88
2023/11/25 01:11:22;;;;;;;;;;;;;;;24.35;18.04;96014.41;5095735;28;19965;-88
2023/11/25 01:13:48;;;;;;;;;;;;;;;24.35;18.25;96014.41;5095309;28;19920;-88
2023/11/25 01:16:15;;;;;;;;;;;;;;;23.93;18.51;95997.09;5089207;28;20015;-88
2023/11/25 01:18:41;;;;;;;;;;;;;;;23.40;19.24;95997.13;5085491;28;19927;-89
2023/11/25 01:21:07;;;;;;;;;;;;;;;23.28;19.19;96004.50;5089607;28;19923;-87
2023/11/25 01:23:33;;;;;;;;;;;;;;;22.75;19.63;96000.84;5085461;28;20004;-87
2023/11/25 01:26:00;;;;;;;;;;;;;;;21.05;21.61;95993.88;5090489;28;19920;-87
2023/11/25 01:28:26;;;;;;;;;;;;;;;21.41;21.32;95995.13;5094507;28;20439;-88
2023/11/25 01:30:52;;;;;;;;;;;;;;;21.53;21.24;95999.78;5094683;28;19927;-88
2023/11/25 01:33:18;;;;;;;;;;;;;;;21.73;21.04;95988.88;5092969;28;19930;-88
2023/11/25 01:35:45;;;;;;;;;;;;;;;21.65;21.15;95994.03;5084904;28;20402;-88
2023/11/25 01:38:11;;;;;;;;;;;;;;;21.34;21.41;95993.44;5077533;28;19946;-87
2023/11/25 01:40:37;;;;;;;;;;;;;;;21.44;21.30;95989.41;5091481;28;19974;-87
2023/11/25 01:43:06;;;;;;;;;;;;;;;21.55;21.45;95995.28;5086924;28;19977;-87
2023/11/25 01:45:32;;;;;;;;;;;;;;;21.81;21.06;95984.53;5093672;28;19920;-87
2023/11/25 01:48:02;;;;;;;;;;;;;;;22.02;20.83;95980.78;5085565;28;19926;-87
2023/11/25 01:50:29;;;;;;;;;;;;;;;22.76;19.92;95979.22;5082389;28;19926;-88
2023/11/25 01:52:56;;;;;;;;;;;;;;;23.24;19.26;95981.50;5091339;28;22283;-88
2023/11/25 01:55:24;;;;;;;;;;;;;;;23.52;18.90;95981.31;5091652;28;19920;-87
2023/11/25 01:57:50;;;;;;;;;;;;;;;23.73;18.79;95983.00;5079809;28;19965;-87
2023/11/25 02:00:17;;;;;;;;;;;;;;;23.67;18.94;95977.28;5087089;28;19943;-87
2023/11/25 02:02:44;;;;;;;;;;;;;;;23.72;18.55;95973.03;5078294;28;19920;-86
2023/11/25 02:05:10;;;;;;;;;;;;;;;23.75;18.76;95958.84;5083224;28;19912;-86
2023/11/25 02:07:37;;;;;;;;;;;;;;;23.86;18.76;95961.81;5088017;28;20714;-86
2023/11/25 02:10:04;;;;;;;;;;;;;;;23.92;18.80;95965.47;5091065;28;20266;-86
2023/11/25 02:12:30;;;;;;;;;;;;;;;23.64;18.45;95964.22;5088129;28;20417;-85
2023/11/25 02:14:57;;;;;;;;;;;;;;;23.72;18.57;95968.19;5088880;28;20016;-85
2023/11/25 02:17:23;;;;;;;;;;;;;;;23.72;18.61;95965.41;5092286;28;19920;-86
2023/11/25 02:19:49;;;;;;;;;;;;;;;23.64;18.50;95961.41;5084532;28;20319;-86
2023/11/25 02:22:15;;;;;;;;;;;;;;;23.60;18.64;95960.84;5091339;28;19931;-85
2023/11/25 02:24:42;;;;;;;;;;;;;;;23.40;18.86;95954.34;5078454;28;19925;-85
2023/11/25 02:27:09;;;;;;;;;;;;;;;22.63;19.48;95973.84;5083633;28;20304;-85
2023/11/25 02:29:35;;;;;;;;;;;;;;;22.58;19.53;95964.06;5087197;28;19916;-85
2023/11/25 02:32:03;;;;;;;;;;;;;;;22.87;19.40;95969.03;5086524;28;19927;-86
2023/11/25 02:34:29;;;;;;;;;;;;;;;23.14;19.32;95966.03;5086777;28;19920;-86
2023/11/25 02:36:57;;;;;;;;;;;;;;;23.31;19.10;95971.97;5083669;28;19924;-87
2023/11/25 02:39:24;;;;;;;;;;;;;;;23.60;18.38;95976.88;5088767;28;19920;-85
2023/11/25 02:41:51;;;;;;;;;;;;;;;23.80;18.53;95971.41;5090970;28;19920;-84
2023/11/25 02:44:17;;;;;;;;;;;;;;;23.96;18.25;95971.69;5091676;28;19927;-85
2023/11/25 02:46:44;;;;;;;;;;;;;;;23.99;18.13;95979.09;5092801;28;19928;-84
2023/11/25 02:49:10;;;;;;;;;;;;;;;23.95;18.07;95986.16;5093613;28;19916;-85
2023/11/25 02:51:37;;;;;;;;;;;;;;;23.98;18.26;95985.22;5093681;28;19971;-85
2023/11/25 02:54:05;;;;;;;;;;;;;;;24.04;18.53;95991.66;5092916;28;19924;-85
2023/11/25 02:56:32;;;;;;;;;;;;;;;24.15;18.29;95991.91;5093017;28;19935;-85
2023/11/25 02:58:58;;;;;;;;;;;;;;;23.91;18.74;95994.78;5089605;28;20315;-84
2023/11/25 03:01:29;;;;;;;;;;;;;;;24.02;18.55;95997.78;5082836;28;19916;-84
2023/11/25 03:03:59;;;;;;;;;;;;;;;24.09;18.40;96004.28;5093933;28;20261;-85
2023/11/25 03:06:26;;;;;;;;;;;;;;;24.16;18.49;96006.69;5093250;28;19923;-85
2023/11/25 03:08:53;;;;;;;;;;;;;;;24.24;18.42;96005.81;5093470;28;19920;-85
2023/11/25 03:11:20;;;;;;;;;;;;;;;24.44;18.38;96010.72;5093713;28;19912;-84
2023/11/25 03:13:47;;;;;;;;;;;;;;;24.54;17.97;96006.53;5093269;28;20024;-85
2023/11/25 03:16:13;;;;;;;;;;;;;;;24.63;18.06;96007.22;5090058;28;19973;-85
2023/11/25 03:18:39;;;;;;;;;;;;;;;24.36;18.47;96010.38;5075769;28;20016;-84
2023/11/25 03:21:08;;;;;;;;;;;;;;;24.10;18.68;96014.25;5089279;28;19931;-84
2023/11/25 03:23:36;;;;;;;;;;;;;;;23.86;18.65;96017.09;5093382;28;19920;-85
2023/11/25 03:26:04;;;;;;;;;;;;;;;23.70;19.06;96011.97;5093216;28;20006;-85
2023/11/25 03:28:32;;;;;;;;;;;;;;;23.96;19.06;96007.34;5092096;28;20058;-85
2023/11/25 03:31:02;;;;;;;;;;;;;;;23.94;18.86;96004.25;5093129;28;19935;-85
2023/11/25 03:33:28;;;;;;;;;;;;;;;23.85;19.06;96007.16;5088701;28;19920;-86
2023/11/25 03:35:54;;;;;;;;;;;;;;;23.96;19.09;96001.75;5075590;28;19998;-86
2023/11/25 03:38:22;;;;;;;;;;;;;;;24.10;18.98;96000.22;5087336;28;20287;-86
2023/11/25 03:40:50;;;;;;;;;;;;;;;24.35;18.71;96003.19;5092606;28;20322;-86
2023/11/25 03:43:16;;;;;;;;;;;;;;;24.23;18.86;96006.28;5092912;28;19924;-85
2023/11/25 03:45:42;;;;;;;;;;;;;;;24.12;18.95;96003.31;5089999;28;19920;-84
2023/11/25 03:48:08;;;;;;;;;;;;;;;24.17;18.89;96008.25;5092486;28;19965;-84
2023/11/25 03:50:34;;;;;;;;;;;;;;;24.25;18.75;96010.16;5087415;28;19924;-84
2023/11/25 03:53:01;;;;;;;;;;;;;;;24.38;18.73;96010.66;5090884;28;20440;-85
2023/11/25 03:55:27;;;;;;;;;;;;;;;24.44;18.53;96014.31;5090368;28;19920;-84
2023/11/25 03:57:53;;;;;;;;;;;;;;;24.43;18.67;96021.19;5092327;28;19935;-85
2023/11/25 04:00:22;;;;;;;;;;;;;;;24.41;18.74;96023.69;5095966;28;20353;-85
2023/11/25 04:02:48;;;;;;;;;;;;;;;24.58;18.85;96021.13;5096478;28;20391;-85
2023/11/25 04:05:16;;;;;;;;;;;;;;;24.33;19.05;96022.53;5097310;28;19967;-84
2023/11/25 04:07:43;;;;;;;;;;;;;;;24.43;18.84;96021.19;5095741;28;19920;-84
2023/11/25 04:10:13;;;;;;;;;;;;;;;24.29;19.02;96029.59;5092569;28;19929;-85
2023/11/25 04:12:43;;;;;;;;;;;;;;;24.17;19.10;96031.44;5088206;28;19927;-85
2023/11/25 04:15:10;;;;;;;;;;;;;;;24.14;18.86;96037.25;5095401;28;19920;-85
2023/11/25 04:17:37;;;;;;;;;;;;;;;24.20;19.17;96035.31;5077898;28;20011;-85
2023/11/25 04:20:12;;;;;;;;;;;;;;;24.16;19.28;96034.72;5094414;28;19920;-85
2023/11/25 04:22:42;;;;;;;;;;;;;;;24.28;18.99;96039.25;5096355;28;19971;-85
2023/11/25 04:25:09;;;;;;;;;;;;;;;23.89;19.16;96044.16;5089510;28;19920;-85
2023/11/25 04:27:35;;;;;;;;;;;;;;;23.02;20.34;96051.03;5095418;28;19916;-87
2023/11/25 04:30:01;;;;;;;;;;;;;;;22.77;20.85;96045.91;5096529;28;20299;-87
2023/11/25 04:32:27;;;;;;;;;;;;;;;22.10;21.25;96046.25;5096220;28;19923;-88
2023/11/25 04:34:53;;;;;;;;;;;;;;;21.87;21.69;96046.94;5076400;28;20002;-85
2023/11/25 04:37:20;;;;;;;;;;;;;;;22.46;21.11;96042.56;5075738;28;20280;-84
2023/11/25 04:39:46;;;;;;;;;;;;;;;22.61;21.17;96054.69;5094567;28;19928;-84
2023/11/25 04:42:13;;;;;;;;;;;;;;;22.13;21.66;96058.53;5084018;28;20011;-85
2023/11/25 04:44:39;;;;;;;;;;;;;;;20.52;23.75;96067.78;5088867;28;19920;-86
2023/11/25 04:47:05;;;;;;;;;;;;;;;19.17;26.05;96071.94;5092768;28;19920;-86
2023/11/25 04:49:32;;;;;;;;;;;;;;;19.75;24.99;96072.28;5092240;28;19943;-86
2023/11/25 04:51:58;;;;;;;;;;;;;;;19.80;24.99;96074.50;5094912;28;20398;-86
2023/11/25 04:54:24;;;;;;;;;;;;;;;20.25;24.44;96076.03;5092986;28;19971;-85
2023/11/25 04:56:50;;;;;;;;;;;;;;;20.76;23.77;96074.38;5095456;28;19931;-86
2023/11/25 04:59:16;;;;;;;;;;;;;;;19.96;24.81;96079.84;5088396;28;20008;-85
2023/11/25 05:01:43;;;;;;;;;;;;;;;20.45;24.14;96084.78;5093629;28;19920;-86
2023/11/25 05:04:09;;;;;;;;;;;;;;;20.09;24.76;96081.78;5088302;28;19998;-86
2023/11/25 05:06:35;;;;;;;;;;;;;;;20.05;24.85;96087.47;5095481;28;19920;-87
2023/11/25 05:09:01;;;;;;;;;;;;;;;21.07;23.72;96103.03;5094015;28;20035;-87
2023/11/25 05:11:28;;;;;;;;;;;;;;;20.13;24.73;96101.94;5095579;28;19970;-87
2023/11/25 05:13:54;;;;;;;;;;;;;;;20.18;24.75;96109.69;5091973;28;19920;-85
2023/11/25 05:16:20;;;;;;;;;;;;;;;20.60;24.00;96117.25;5093419;28;20347;-87
2023/11/25 05:18:46;;;;;;;;;;;;;;;21.45;23.28;96118.59;5094466;28;19924;-87
2023/11/25 05:21:12;;;;;;;;;;;;;;;21.04;23.53;96122.66;5081345;28;19921;-86
2023/11/25 05:23:38;;;;;;;;;;;;;;;21.76;22.77;96117.22;5080406;28;20015;-87
2023/11/25 05:26:05;;;;;;;;;;;;;;;22.13;22.20;96125.59;5094933;28;20015;-87
2023/11/25 05:28:31;;;;;;;;;;;;;;;23.00;21.18;96128.31;5094426;28;20363;-88
2023/11/25 05:30:57;;;;;;;;;;;;;;;23.21;21.08;96128.06;5095064;28;19951;-88
2023/11/25 05:33:23;;;;;;;;;;;;;;;23.48;20.57;96124.34;5077293;28;19941;-88
2023/11/25 05:35:49;;;;;;;;;;;;;;;23.45;20.64;96127.34;5080401;28;19927;-87
2023/11/25 05:38:18;;;;;;;;;;;;;;;23.46;20.68;96129.66;5093529;28;19920;-86
2023/11/25 05:40:46;;;;;;;;;;;;;;;23.63;20.68;96133.59;5080378;28;20015;-86
2023/11/25 05:43:13;;;;;;;;;;;;;;;23.90;20.27;96136.16;5094959;28;19943;-86
2023/11/25 05:45:41;;;;;;;;;;;;;;;23.75;20.50;96131.78;5094358;28;19941;-86
2023/11/25 05:48:07;;;;;;;;;;;;;;;23.45;20.79;96135.75;5093752;28;19939;-86
2023/11/25 05:50:34;;;;;;;;;;;;;;;22.92;21.37;96150.28;5085900;28;20015;-86
2023/11/25 05:53:00;;;;;;;;;;;;;;;22.09;22.22;96158.53;5093916;28;19935;-86
2023/11/25 05:55:26;;;;;;;;;;;;;;;21.03;23.63;96160.94;5094471;28;19919;-87
2023/11/25 05:57:52;;;;;;;;;;;;;;;21.31;23.48;96162.63;5093899;28;19920;-85
2023/11/25 06:00:19;;;;;;;;;;;;;;;21.19;23.76;96160.72;5090600;28;19923;-86
2023/11/25 06:02:45;;;;;;;;;;;;;;;21.59;23.01;96166.22;5084377;28;20374;-88
2023/11/25 06:05:12;;;;;;;;;;;;;;;20.79;23.93;96171.09;5094395;28;20011;-88
2023/11/25 06:07:38;;;;;;;;;;;;;;;21.34;23.40;96178.44;5079795;28;19928;-88
2023/11/25 06:10:04;;;;;;;;;;;;;;;17.97;27.82;96196.34;5090232;28;19927;-88
2023/11/25 06:12:32;;;;;;;;;;;;;;;17.43;28.26;96191.41;5094690;28;19946;-88
2023/11/25 06:14:58;;;;;;;;;;;;;;;14.77;33.43;96202.66;5086234;28;20380;-88
2023/11/25 06:17:24;;;;;;;;;;;;;;;15.59;31.35;96210.44;5079967;28;19943;-88
2023/11/25 06:19:52;;;;;;;;;;;;;;;14.89;34.06;96228.94;5089051;28;20230;-88
2023/11/25 06:22:18;;;;;;;;;;;;;;;16.23;30.72;96224.59;5079815;28;19974;-90
2023/11/25 06:24:44;;;;;;;;;;;;;;;17.56;28.34;96227.56;5092660;28;19928;-89
2023/11/25 06:27:10;;;;;;;;;;;;;;;17.39;28.51;96223.19;5094134;28;19927;-89
2023/11/25 06:29:39;;;;;;;;;;;;;;;18.55;26.60;96231.97;5091002;28;19927;-88
2023/11/25 06:32:05;;;;;;;;;;;;;;;16.87;30.39;96242.66;5089356;28;19916;-88
2023/11/25 06:34:32;;;;;;;;;;;;;;;18.69;26.35;96235.59;5072270;28;19974;-88
2023/11/25 06:36:58;;;;;;;;;;;;;;;19.02;25.72;96237.72;5090550;28;19920;-89
2023/11/25 06:39:26;;;;;;;;;;;;;;;19.63;24.88;96253.28;5087619;28;20353;-89
2023/11/25 06:41:53;;;;;;;;;;;;;;;18.79;27.06;96256.72;5086830;28;20010;-89
2023/11/25 06:44:19;;;;;;;;;;;;;;;19.26;25.14;96260.41;5093670;28;20241;-91
2023/11/25 06:46:46;;;;;;;;;;;;;;;19.86;24.36;96264.81;5084522;28;19920;-90
2023/11/25 06:49:13;;;;;;;;;;;;;;;19.38;26.07;96265.25;5086284;28;19989;-90
2023/11/25 06:51:42;;;;;;;;;;;;;;;18.71;26.10;96283.16;5079434;28;19927;-90
2023/11/25 06:54:09;;;;;;;;;;;;;;;19.31;24.97;96277.34;5070431;28;19924;-91
2023/11/25 06:56:35;;;;;;;;;;;;;;;19.84;24.20;96278.41;5080309;28;19921;-91
2023/11/25 06:59:02;;;;;;;;;;;;;;;19.20;24.96;96292.81;5082755;28;19912;-89
2023/11/25 07:01:28;;;;;;;;;;;;;;;17.94;27.35;96295.19;5086561;28;20368;-90
2023/11/25 07:03:54;;;;;;;;;;;;;;;18.23;27.21;96287.66;5092427;28;20037;-91
2023/11/25 07:06:20;;;;;;;;;;;;;;;18.58;26.39;96300.59;5084383;28;19917;-87
2023/11/25 07:08:46;;;;;;;;;;;;;;;18.45;25.79;96308.13;5093550;28;19931;-87
2023/11/25 07:11:13;;;;;;;;;;;;;;;17.63;27.13;96311.41;5093374;28;20006;-86
2023/11/25 07:13:40;;;;;;;;;;;;;;;17.91;26.72;96318.25;5093357;28;19920;-86
2023/11/25 07:16:07;;;;;;;;;;;;;;;17.72;26.90;96322.69;5093418;28;20265;-86
2023/11/25 07:18:33;;;;;;;;;;;;;;;17.84;26.58;96316.44;5093542;28;19934;-86
2023/11/25 07:21:00;;;;;;;;;;;;;;;18.22;28.20;96326.97;5090772;28;19921;-88
2023/11/25 07:23:26;;;;;;;;;;;;;;;18.62;25.46;96329.06;5080786;28;19971;-86
2023/11/25 07:25:55;;;;;;;;;;;;;;;17.93;26.64;96336.03;5084577;28;20347;-86
2023/11/25 07:28:22;;;;;;;;;;;;;;;17.17;28.66;96337.44;5061011;28;20291;-88
2023/11/25 07:30:49;;;;;;;;;;;;;;;18.63;25.74;96344.53;5079875;28;19921;-86
2023/11/25 07:33:15;;;;;;;;;;;;;;;17.69;27.70;96345.00;5066102;28;19966;-90
2023/11/25 07:35:41;;;;;;;;;;;;;;;15.75;30.06;96369.00;5091073;28;19928;-88
2023/11/25 07:38:07;;;;;;;;;;;;;;;14.20;32.23;96372.94;5091156;28;19920;-89
2023/11/25 07:40:34;;;;;;;;;;;;;;;14.44;30.49;96369.19;5086337;28;20010;-91
2023/11/25 07:43:00;;;;;;;;;;;;;;;14.36;33.75;96384.25;5084982;28;20380;-88
2023/11/25 07:45:26;;;;;;;;;;;;;;;13.32;33.56;96377.22;5082297;28;19931;-87
2023/11/25 07:47:52;;;;;;;;;;;;;;;14.13;34.27;96381.28;5085708;28;20015;-89
2023/11/25 07:50:19;;;;;;;;;;;;;;;14.38;32.45;96371.59;5085223;28;20061;-89
2023/11/25 07:52:45;;;;;;;;;;;;;;;14.52;29.39;96388.00;5082181;28;19994;-88
2023/11/25 07:55:11;;;;;;;;;;;;;;;13.62;30.81;96395.91;5096672;28;19928;-91
2023/11/25 07:57:38;;;;;;;;;;;;;;;16.25;28.96;96390.31;5090526;28;20372;-88
2023/11/25 08:00:06;;;;;;;;;;;;;;;16.86;26.78;96391.56;5093320;28;19917;-87
2023/11/25 08:02:32;;;;;;;;;;;;;;;15.56;28.56;96397.38;5094952;28;20368;-90
2023/11/25 08:04:58;;;;;;;;;;;;;;;15.93;27.31;96401.94;5096390;28;19916;-90
2023/11/25 08:07:24;;;;;;;;;;;;;;;17.29;28.06;96402.56;5095099;28;19942;-89
2023/11/25 08:09:52;;;;;;;;;;;;;;;17.18;25.96;96413.84;5085053;28;19942;-91
2023/11/25 08:12:18;;;;;;;;;;;;;;;17.03;27.47;96417.34;5082724;28;19923;-91
2023/11/25 08:14:44;;;;;;;;;;;;;;;17.57;24.86;96420.59;5087717;28;19921;-89
2023/11/25 08:17:10;;;;;;;;;;;;;;;18.88;22.93;96416.09;5083807;28;19916;-89
2023/11/25 08:19:36;;;;;;;;;;;;;;;18.27;25.04;96423.69;5088121;28;20010;-89
2023/11/25 08:22:03;;;;;;;;;;;;;;;19.27;22.56;96429.72;5085902;28;20272;-90
2023/11/25 08:24:29;;;;;;;;;;;;;;;17.20;25.69;96432.81;5071977;28;19931;-89
2023/11/25 08:26:56;;;;;;;;;;;;;;;16.23;26.11;96448.09;5088586;28;20367;-90
2023/11/25 08:29:22;;;;;;;;;;;;;;;15.70;30.46;96454.47;5080886;28;19978;-91
2023/11/25 08:31:48;;;;;;;;;;;;;;;16.78;28.43;96451.09;5078079;28;19920;-90
2023/11/25 08:34:14;;;;;;;;;;;;;;;16.77;26.20;96452.31;5089163;28;20007;-89
2023/11/25 08:36:53;;;;;;;;;;;;;;;17.40;25.68;96461.34;5091688;28;19920;-88
2023/11/25 08:39:21;;;;;;;;;;;;;;;18.58;24.15;96455.44;5079498;28;20379;-89
2023/11/25 08:41:47;;;;;;;;;;;;;;;17.68;26.93;96471.06;5082752;28;19936;-90
2023/11/25 08:44:13;;;;;;;;;;;;;;;19.60;22.79;96469.34;5079493;28;20376;-87
2023/11/25 08:46:42;;;;;;;;;;;;;;;20.82;21.49;96467.84;5084101;28;19920;-88
2023/11/25 08:49:10;;;;;;;;;;;;;;;19.94;23.83;96477.06;5086301;28;19926;-89
2023/11/25 08:51:39;;;;;;;;;;;;;;;18.78;25.97;96483.94;5090271;28;19934;-90
2023/11/25 08:54:06;;;;;;;;;;;;;;;20.46;22.61;96479.41;5090720;28;20470;-87
2023/11/25 08:56:32;;;;;;;;;;;;;;;20.80;22.17;96478.66;5086328;28;19964;-87
2023/11/25 08:59:01;;;;;;;;;;;;;;;20.00;22.63;96489.97;5094809;28;19922;-88
2023/11/25 09:01:54;;;;;;;;;;;;;;;18.67;24.49;96502.09;5089396;28;19931;-87
2023/11/25 09:04:22;;;;;;;;;;;;;;;19.05;24.38;96492.72;5075914;28;19920;-84
2023/11/25 09:06:48;;;;;;;;;;;;;;;17.65;27.34;96496.91;5095078;28;19917;-86
2023/11/25 09:09:16;;;;;;;;;;;;;;;18.46;25.43;96503.41;5092210;28;19924;-86
2023/11/25 09:11:43;;;;;;;;;;;;;;;16.70;30.88;96498.75;5092737;28;20008;-87
2023/11/25 09:14:09;;;;;;;;;;;;;;;16.76;27.50;96508.94;5089701;28;19928;-84
2023/11/25 09:16:35;;;;;;;;;;;;;;;17.60;26.95;96505.72;5089584;28;19990;-86
2023/11/25 09:19:02;;;;;;;;;;;;;;;16.95;28.65;96508.19;5080828;28;19974;-88
2023/11/25 09:21:28;;;;;;;;;;;;;;;17.87;26.63;96501.59;5080547;28;19920;-89
2023/11/25 09:23:58;;;;;;;;;;;;;;;18.30;26.24;96506.13;5084703;28;19924;-90
2023/11/25 09:26:24;;;;;;;;;;;;;;;17.16;30.44;96502.25;5086589;28;19916;-89
2023/11/25 09:28:51;;;;;;;;;;;;;;;17.33;28.51;96510.63;5083408;28;19937;-89
2023/11/25 09:31:18;;;;;;;;;;;;;;;17.93;25.93;96505.41;5083182;28;19928;-89
2023/11/25 09:33:44;;;;;;;;;;;;;;;18.16;25.47;96507.25;5089782;28;20002;-89
2023/11/25 09:36:10;;;;;;;;;;;;;;;18.22;24.85;96502.75;5088257;28;19989;-88
2023/11/25 09:38:36;;;;;;;;;;;;;;;18.33;25.21;96505.28;5091659;28;20041;-88
2023/11/25 09:41:03;;;;;;;;;;;;;;;17.59;26.03;96504.19;5094896;28;19927;-89
2023/11/25 09:43:29;;;;;;;;;;;;;;;17.95;25.23;96508.53;5094218;28;19916;-89
2023/11/25 09:45:56;;;;;;;;;;;;;;;19.04;24.40;96512.63;5091143;28;20021;-89
2023/11/25 09:48:23;;;;;;;;;;;;;;;18.68;24.18;96507.22;5088292;28;19959;-89
2023/11/25 09:50:52;;;;;;;;;;;;;;;18.71;24.18;96511.91;5077097;28;20435;-89
2023/11/25 09:53:25;;;;;;;;;;;;;;;18.30;24.90;96514.47;5083344;28;20471;-89
2023/11/25 09:56:06;;;;;;;;;;;;;;;17.39;27.87;96526.34;5094146;28;19916;-89
2023/11/25 09:58:38;;;;;;;;;;;;;;;18.35;25.59;96527.84;5079812;28;20295;-89
2023/11/25 10:01:12;;;;;;;;;;;;;;;19.47;23.78;96524.19;5096156;28;20299;-88
2023/11/25 10:03:45;;;;;;;;;;;;;;;19.37;24.26;96530.06;5079930;28;19927;-90
2023/11/25 10:06:11;;;;;;;;;;;;;;;19.37;23.72;96530.06;5079860;28;19956;-88
2023/11/25 10:08:38;;;;;;;;;;;;;;;19.37;23.31;96525.25;5093748;28;19927;-89
2023/11/25 10:11:08;;;;;;;;;;;;;;;18.12;25.95;96525.22;5091135;28;19916;-89
2023/11/25 10:13:37;;;;;;;;;;;;;;;18.61;23.98;96522.06;5093809;28;19927;-89
2023/11/25 10:16:03;;;;;;;;;;;;;;;20.01;22.38;96518.63;5091443;28;19916;-89
2023/11/25 10:18:30;;;;;;;;;;;;;;;20.29;21.68;96528.13;5082467;28;19920;-89
2023/11/25 10:20:59;;;;;;;;;;;;;;;20.14;21.97;96529.78;5093489;28;19930;-89
2023/11/25 10:23:26;;;;;;;;;;;;;;;19.47;23.31;96528.97;5084104;28;19932;-90
2023/11/25 10:25:53;;;;;;;;;;;;;;;18.74;24.30;96526.94;5082925;28;20373;-89
2023/11/25 10:28:25;;;;;;;;;;;;;;;20.71;21.63;96539.94;5092007;28;20365;-88
2023/11/25 10:30:55;;;;;;;;;;;;;;;20.60;20.98;96538.28;5089779;28;20268;-89
2023/11/25 10:33:22;;;;;;;;;;;;;;;20.98;20.83;96532.59;5075927;28;19916;-88
2023/11/25 10:35:48;;;;;;;;;;;;;;;21.48;20.42;96537.28;5090266;28;19920;-88
2023/11/25 10:38:15;;;;;;;;;;;;;;;21.26;20.69;96544.88;5091602;28;19916;-88
2023/11/25 10:40:41;;;;;;;;;;;;;;;20.87;20.74;96534.19;5083967;28;20299;-89
2023/11/25 10:43:08;;;;;;;;;;;;;;;20.76;21.02;96533.78;5093907;28;19916;-88
2023/11/25 10:45:34;;;;;;;;;;;;;;;21.17;20.69;96530.81;5093906;28;19924;-87
2023/11/25 10:48:00;;;;;;;;;;;;;;;22.49;20.01;96536.66;5092222;28;19969;-89
2023/11/25 10:50:26;;;;;;;;;;;;;;;23.46;19.09;96527.41;5088718;28;19948;-89
2023/11/25 10:52:57;;;;;;;;;;;;;;;23.88;18.30;96533.91;5077496;28;20344;-89
2023/11/25 10:55:26;;;;;;;;;;;;;;;23.19;18.69;96532.97;5082339;28;19920;-89
2023/11/25 10:57:56;;;;;;;;;;;;;;;23.05;18.79;96539.16;5082248;28;19927;-88
2023/11/25 11:00:22;;;;;;;;;;;;;;;22.93;19.96;96545.66;5090676;28;19924;-88
2023/11/25 11:02:50;;;;;;;;;;;;;;;22.50;19.50;96544.56;5081565;28;19989;-89
2023/11/25 11:05:24;;;;;;;;;;;;;;;21.94;19.60;96536.38;5090028;28;19972;-89
2023/11/25 11:08:00;;;;;;;;;;;;;;;21.75;20.20;96536.72;5077171;28;19924;-91
2023/11/25 11:10:39;;;;;;;;;;;;;;;21.31;20.49;96542.25;5088179;28;19916;-87
2023/11/25 11:13:07;;;;;;;;;;;;;;;21.43;20.53;96535.06;5097202;28;19916;-89
2023/11/25 11:15:36;;;;;;;;;;;;;;;21.28;23.08;96548.72;5089791;28;19916;-89
2023/11/25 11:18:13;;;;;;;;;;;;;;;21.16;20.66;96540.41;5086309;28;20393;-88
2023/11/25 11:20:43;;;;;;;;;;;;;;;21.63;20.24;96543.13;5097770;28;20022;-88
2023/11/25 11:23:09;;;;;;;;;;;;;;;21.33;20.94;96550.19;5089540;28;19932;-90
2023/11/25 11:25:55;;;;;;;;;;;;;;;21.64;20.49;96547.47;5087148;28;19920;-90
2023/11/25 11:28:47;;;;;;;;;;;;;;;21.83;20.37;96544.34;5096608;28;19973;-89
2023/11/25 11:31:36;;;;;;;;;;;;;;;21.93;20.13;96548.81;5055735;28;19924;-89
2023/11/25 11:34:03;;;;;;;;;;;;;;;22.07;20.02;96544.69;5043751;28;19920;-88
2023/11/25 11:36:30;;;;;;;;;;;;;;;21.27;21.11;96549.97;5073147;28;19920;-88
2023/11/25 11:38:56;;;;;;;;;;;;;;;21.47;20.93;96548.91;5093681;28;19935;-89
2023/11/25 11:41:23;;;;;;;;;;;;;;;21.65;20.30;96554.63;5089114;28;19916;-90
2023/11/25 11:44:03;;;;;;;;;;;;;;;21.77;20.47;96556.59;5084298;28;20016;-92
2023/11/25 11:46:30;;;;;;;;;;;;;;;20.53;21.72;96554.44;5087841;28;20284;-88
2023/11/25 11:48:57;;;;;;;;;;;;;;;19.86;23.31;96560.03;5079768;28;19966;-89
2023/11/25 11:51:23;;;;;;;;;;;;;;;20.77;22.33;96547.28;5087528;28;19957;-89
2023/11/25 11:54:08;;;;;;;;;;;;;;;21.83;21.26;96537.97;5084571;28;19923;-88
2023/11/25 11:56:53;;;;;;;;;;;;;;;22.24;20.60;96548.03;5083268;28;20379;-88
2023/11/25 11:59:19;;;;;;;;;;;;;;;22.42;20.14;96540.53;5090103;28;20306;-88
2023/11/25 12:01:45;;;;;;;;;;;;;;;22.68;19.65;96544.66;5083248;28;19920;-89
2023/11/25 12:04:12;;;;;;;;;;;;;;;23.53;19.21;96532.69;5069007;28;20399;-90
2023/11/25 12:06:39;;;;;;;;;;;;;;;23.58;18.99;96536.88;5097988;28;19916;-90
2023/11/25 12:09:05;;;;;;;;;;;;;;;22.41;20.37;96538.16;5098767;28;19916;-89
2023/11/25 12:11:31;;;;;;;;;;;;;;;22.42;20.22;96537.72;5083107;28;20421;-89
2023/11/25 12:13:57;;;;;;;;;;;;;;;22.10;20.59;96531.81;5077251;28;19917;-89
2023/11/25 12:16:23;;;;;;;;;;;;;;;22.74;20.10;96549.66;5076798;28;20006;-89
2023/11/25 12:18:50;;;;;;;;;;;;;;;22.61;20.50;96539.34;5092026;28;19959;-89
2023/11/25 12:21:17;;;;;;;;;;;;;;;21.72;21.47;96540.41;5095268;28;20035;-90
2023/11/25 12:23:43;;;;;;;;;;;;;;;21.99;20.82;96543.38;5079486;28;19925;-89
2023/11/25 12:26:10;;;;;;;;;;;;;;;21.46;21.71;96536.94;5090997;28;19959;-88
2023/11/25 12:28:40;;;;;;;;;;;;;;;20.37;24.48;96541.41;5096193;28;21385;-89
2023/11/25 12:31:09;;;;;;;;;;;;;;;19.56;23.86;96549.38;5083030;28;19959;-90
2023/11/25 12:33:35;;;;;;;;;;;;;;;18.63;27.31;96541.88;5076550;28;19952;-89
2023/11/25 12:36:02;;;;;;;;;;;;;;;20.31;23.17;96545.19;5076719;28;19970;-89
2023/11/25 12:38:31;;;;;;;;;;;;;;;21.04;22.28;96538.41;5076184;28;19999;-89
2023/11/25 12:40:57;;;;;;;;;;;;;;;21.41;21.92;96533.94;5078398;28;19927;-89
2023/11/25 12:43:23;;;;;;;;;;;;;;;22.37;21.49;96538.31;5088340;28;20016;-89
2023/11/25 12:45:49;;;;;;;;;;;;;;;23.03;20.39;96536.06;5075697;28;20364;-89
2023/11/25 12:48:28;;;;;;;;;;;;;;;23.20;20.17;96524.09;5084632;28;19963;-89